sensor_id;sensor_type;location;lat;lon;timestamp;P1;durP1;ratioP1;P2;durP2;ratioP2
11135;SDS011;5622;50.840;4.948;2023-05-10T00:00:57;14.93;;;9.20;;
11135;SDS011;5622;50.840;4.948;2023-05-10T00:03:41;15.90;;;10.07;;
11135;SDS011;5622;50.840;4.948;2023-05-10T00:06:54;16.23;;;9.77;;
11135;SDS011;5622;50.840;4.948;2023-05-10T00:09:32;25.73;;;9.13;;
11135;SDS011;5622;50.840;4.948;2023-05-10T00:12:20;14.00;;;8.23;;
11135;SDS011;5622;50.840;4.948;2023-05-10T00:14:56;18.77;;;8.70;;
11135;SDS011;5622;50.840;4.948;2023-05-10T00:17:43;15.67;;;9.90;;
11135;SDS011;5622;50.840;4.948;2023-05-10T00:20:48;12.47;;;7.90;;
11135;SDS011;5622;50.840;4.948;2023-05-10T00:23:38;13.87;;;8.87;;
11135;SDS011;5622;50.840;4.948;2023-05-10T00:26:23;19.77;;;9.67;;
11135;SDS011;5622;50.840;4.948;2023-05-10T00:29:09;13.40;;;8.47;;
11135;SDS011;5622;50.840;4.948;2023-05-10T00:31:40;14.53;;;8.90;;
11135;SDS011;5622;50.840;4.948;2023-05-10T00:34:32;18.17;;;10.80;;
11135;SDS011;5622;50.840;4.948;2023-05-10T00:47:30;15.43;;;10.00;;
11135;SDS011;5622;50.840;4.948;2023-05-10T00:50:16;22.20;;;11.17;;
11135;SDS011;5622;50.840;4.948;2023-05-10T00:59:44;25.73;;;11.67;;
11135;SDS011;5622;50.840;4.948;2023-05-10T01:02:40;19.17;;;11.30;;
11135;SDS011;5622;50.840;4.948;2023-05-10T01:05:32;22.50;;;11.33;;
11135;SDS011;5622;50.840;4.948;2023-05-10T01:08:19;20.30;;;11.57;;
11135;SDS011;5622;50.840;4.948;2023-05-10T01:11:06;24.23;;;10.93;;
11135;SDS011;5622;50.840;4.948;2023-05-10T01:14:02;20.10;;;10.33;;
11135;SDS011;5622;50.840;4.948;2023-05-10T01:16:51;25.70;;;11.33;;
11135;SDS011;5622;50.840;4.948;2023-05-10T01:23:19;18.47;;;10.30;;
11135;SDS011;5622;50.840;4.948;2023-05-10T01:26:32;18.47;;;10.60;;
11135;SDS011;5622;50.840;4.948;2023-05-10T01:29:55;26.53;;;11.47;;
11135;SDS011;5622;50.840;4.948;2023-05-10T01:42:31;22.00;;;10.97;;
11135;SDS011;5622;50.840;4.948;2023-05-10T01:45:37;15.50;;;9.97;;
11135;SDS011;5622;50.840;4.948;2023-05-10T01:48:35;18.67;;;11.10;;
11135;SDS011;5622;50.840;4.948;2023-05-10T02:01:29;18.73;;;12.50;;
11135;SDS011;5622;50.840;4.948;2023-05-10T02:04:18;26.17;;;12.97;;
11135;SDS011;5622;50.840;4.948;2023-05-10T02:07:09;25.93;;;12.37;;
11135;SDS011;5622;50.840;4.948;2023-05-10T02:09:45;28.03;;;12.17;;
11135;SDS011;5622;50.840;4.948;2023-05-10T02:12:35;25.53;;;13.07;;
11135;SDS011;5622;50.840;4.948;2023-05-10T02:15:37;24.63;;;13.63;;
11135;SDS011;5622;50.840;4.948;2023-05-10T02:18:37;24.33;;;12.70;;
11135;SDS011;5622;50.840;4.948;2023-05-10T02:21:28;32.73;;;14.20;;
11135;SDS011;5622;50.840;4.948;2023-05-10T02:24:28;28.27;;;13.13;;
11135;SDS011;5622;50.840;4.948;2023-05-10T02:27:12;21.33;;;13.10;;
11135;SDS011;5622;50.840;4.948;2023-05-10T02:30:08;27.83;;;13.37;;
11135;SDS011;5622;50.840;4.948;2023-05-10T02:32:59;30.20;;;13.07;;
11135;SDS011;5622;50.840;4.948;2023-05-10T05:28:26;31.90;;;15.33;;
11135;SDS011;5622;50.840;4.948;2023-05-10T05:30:58;27.90;;;16.63;;
11135;SDS011;5622;50.840;4.948;2023-05-10T05:33:25;37.17;;;17.43;;
11135;SDS011;5622;50.840;4.948;2023-05-10T05:35:54;30.97;;;16.03;;
11135;SDS011;5622;50.840;4.948;2023-05-10T05:38:31;33.70;;;17.33;;
11135;SDS011;5622;50.840;4.948;2023-05-10T05:41:02;32.50;;;17.03;;
11135;SDS011;5622;50.840;4.948;2023-05-10T05:43:31;38.90;;;19.37;;
11135;SDS011;5622;50.840;4.948;2023-05-10T05:46:00;39.17;;;20.40;;
11135;SDS011;5622;50.840;4.948;2023-05-10T05:48:31;43.77;;;20.90;;
11135;SDS011;5622;50.840;4.948;2023-05-10T05:54:26;47.03;;;22.00;;
11135;SDS011;5622;50.840;4.948;2023-05-10T05:56:56;51.23;;;23.13;;
11135;SDS011;5622;50.840;4.948;2023-05-10T05:59:34;52.80;;;23.03;;
11135;SDS011;5622;50.840;4.948;2023-05-10T06:02:07;49.63;;;22.83;;
11135;SDS011;5622;50.840;4.948;2023-05-10T06:04:35;46.93;;;22.47;;
11135;SDS011;5622;50.840;4.948;2023-05-10T06:07:05;49.63;;;22.17;;
11135;SDS011;5622;50.840;4.948;2023-05-10T06:09:35;49.10;;;22.13;;
11135;SDS011;5622;50.840;4.948;2023-05-10T06:12:21;48.10;;;21.90;;
11135;SDS011;5622;50.840;4.948;2023-05-10T06:18:09;47.30;;;18.97;;
11135;SDS011;5622;50.840;4.948;2023-05-10T06:20:49;39.17;;;19.03;;
11135;SDS011;5622;50.840;4.948;2023-05-10T06:23:36;41.37;;;19.00;;
11135;SDS011;5622;50.840;4.948;2023-05-10T06:26:22;42.80;;;20.40;;
11135;SDS011;5622;50.840;4.948;2023-05-10T06:28:59;36.40;;;19.60;;
11135;SDS011;5622;50.840;4.948;2023-05-10T06:31:53;34.90;;;18.87;;
11135;SDS011;5622;50.840;4.948;2023-05-10T06:34:23;38.60;;;19.00;;
11135;SDS011;5622;50.840;4.948;2023-05-10T06:36:53;38.70;;;20.03;;
11135;SDS011;5622;50.840;4.948;2023-05-10T06:39:24;50.57;;;21.03;;
11135;SDS011;5622;50.840;4.948;2023-05-10T06:41:53;45.03;;;20.67;;
11135;SDS011;5622;50.840;4.948;2023-05-10T06:44:21;61.67;;;21.60;;
11135;SDS011;5622;50.840;4.948;2023-05-10T06:46:50;39.53;;;20.13;;
11135;SDS011;5622;50.840;4.948;2023-05-10T06:49:26;46.77;;;20.23;;
11135;SDS011;5622;50.840;4.948;2023-05-10T06:52:02;44.70;;;22.47;;
11135;SDS011;5622;50.840;4.948;2023-05-10T06:54:34;46.67;;;20.87;;
11135;SDS011;5622;50.840;4.948;2023-05-10T06:57:10;35.10;;;16.93;;
11135;SDS011;5622;50.840;4.948;2023-05-10T06:59:44;18.77;;;9.70;;
11135;SDS011;5622;50.840;4.948;2023-05-10T07:02:37;11.13;;;6.50;;
11135;SDS011;5622;50.840;4.948;2023-05-10T07:05:12;9.13;;;4.90;;
11135;SDS011;5622;50.840;4.948;2023-05-10T07:07:42;4.80;;;3.80;;
11135;SDS011;5622;50.840;4.948;2023-05-10T07:10:13;3.90;;;2.67;;
11135;SDS011;5622;50.840;4.948;2023-05-10T07:12:47;4.20;;;2.30;;
11135;SDS011;5622;50.840;4.948;2023-05-10T07:15:19;5.27;;;2.57;;
11135;SDS011;5622;50.840;4.948;2023-05-10T07:17:58;4.10;;;2.80;;
11135;SDS011;5622;50.840;4.948;2023-05-10T07:24:04;3.67;;;2.90;;
11135;SDS011;5622;50.840;4.948;2023-05-10T07:26:46;3.63;;;2.80;;
11135;SDS011;5622;50.840;4.948;2023-05-10T07:29:15;5.03;;;2.73;;
11135;SDS011;5622;50.840;4.948;2023-05-10T07:31:48;5.00;;;3.27;;
11135;SDS011;5622;50.840;4.948;2023-05-10T07:34:21;3.83;;;2.83;;
11135;SDS011;5622;50.840;4.948;2023-05-10T07:36:49;6.87;;;3.30;;
11135;SDS011;5622;50.840;4.948;2023-05-10T07:39:24;3.87;;;2.87;;
11135;SDS011;5622;50.840;4.948;2023-05-10T07:41:53;5.93;;;3.40;;
11135;SDS011;5622;50.840;4.948;2023-05-10T07:44:23;5.57;;;3.73;;
11135;SDS011;5622;50.840;4.948;2023-05-10T07:46:55;6.73;;;4.93;;
11135;SDS011;5622;50.840;4.948;2023-05-10T07:49:25;4.73;;;3.63;;
11135;SDS011;5622;50.840;4.948;2023-05-10T07:52:02;6.03;;;3.57;;
11135;SDS011;5622;50.840;4.948;2023-05-10T07:54:42;4.33;;;3.70;;
11135;SDS011;5622;50.840;4.948;2023-05-10T07:57:19;5.47;;;4.00;;
11135;SDS011;5622;50.840;4.948;2023-05-10T07:59:52;6.50;;;4.23;;
11135;SDS011;5622;50.840;4.948;2023-05-10T08:02:20;5.60;;;3.87;;
11135;SDS011;5622;50.840;4.948;2023-05-10T08:04:56;8.57;;;3.57;;
11135;SDS011;5622;50.840;4.948;2023-05-10T08:07:26;7.30;;;4.00;;
11135;SDS011;5622;50.840;4.948;2023-05-10T08:09:54;5.60;;;4.00;;
11135;SDS011;5622;50.840;4.948;2023-05-10T08:12:23;7.90;;;3.77;;
11135;SDS011;5622;50.840;4.948;2023-05-10T08:14:52;4.73;;;3.27;;
11135;SDS011;5622;50.840;4.948;2023-05-10T08:17:23;8.53;;;3.63;;
11135;SDS011;5622;50.840;4.948;2023-05-10T08:19:52;7.07;;;3.53;;
11135;SDS011;5622;50.840;4.948;2023-05-10T08:22:24;7.03;;;3.60;;
11135;SDS011;5622;50.840;4.948;2023-05-10T08:24:59;7.77;;;3.60;;
11135;SDS011;5622;50.840;4.948;2023-05-10T08:27:31;6.20;;;3.90;;
11135;SDS011;5622;50.840;4.948;2023-05-10T08:29:58;6.10;;;3.97;;
11135;SDS011;5622;50.840;4.948;2023-05-10T08:32:27;5.83;;;4.30;;
11135;SDS011;5622;50.840;4.948;2023-05-10T08:34:57;8.97;;;4.87;;
11135;SDS011;5622;50.840;4.948;2023-05-10T08:37:31;12.57;;;5.27;;
11135;SDS011;5622;50.840;4.948;2023-05-10T08:40:00;11.17;;;5.80;;
11135;SDS011;5622;50.840;4.948;2023-05-10T08:42:28;8.70;;;5.33;;
11135;SDS011;5622;50.840;4.948;2023-05-10T08:45:01;11.47;;;6.17;;
11135;SDS011;5622;50.840;4.948;2023-05-10T08:47:34;10.67;;;6.73;;
11135;SDS011;5622;50.840;4.948;2023-05-10T08:50:06;11.77;;;7.30;;
11135;SDS011;5622;50.840;4.948;2023-05-10T08:52:35;16.53;;;8.50;;
11135;SDS011;5622;50.840;4.948;2023-05-10T08:55:05;17.00;;;8.00;;
11135;SDS011;5622;50.840;4.948;2023-05-10T08:57:36;16.87;;;7.77;;
11135;SDS011;5622;50.840;4.948;2023-05-10T09:00:05;13.47;;;8.27;;
11135;SDS011;5622;50.840;4.948;2023-05-10T09:02:34;12.63;;;8.17;;
11135;SDS011;5622;50.840;4.948;2023-05-10T09:05:04;16.57;;;8.40;;
11135;SDS011;5622;50.840;4.948;2023-05-10T09:07:35;14.37;;;8.33;;
11135;SDS011;5622;50.840;4.948;2023-05-10T09:10:03;16.23;;;8.03;;
11135;SDS011;5622;50.840;4.948;2023-05-10T09:12:31;14.93;;;8.40;;
11135;SDS011;5622;50.840;4.948;2023-05-10T09:14:59;13.40;;;7.67;;
11135;SDS011;5622;50.840;4.948;2023-05-10T09:17:28;12.20;;;7.47;;
11135;SDS011;5622;50.840;4.948;2023-05-10T09:19:57;13.70;;;7.60;;
11135;SDS011;5622;50.840;4.948;2023-05-10T09:22:26;14.20;;;7.40;;
11135;SDS011;5622;50.840;4.948;2023-05-10T09:25:04;11.37;;;7.50;;
11135;SDS011;5622;50.840;4.948;2023-05-10T09:27:32;13.93;;;6.13;;
11135;SDS011;5622;50.840;4.948;2023-05-10T09:30:00;11.67;;;7.53;;
11135;SDS011;5622;50.840;4.948;2023-05-10T09:32:35;9.00;;;6.17;;
11135;SDS011;5622;50.840;4.948;2023-05-10T09:35:06;9.27;;;6.50;;
11135;SDS011;5622;50.840;4.948;2023-05-10T09:37:38;10.40;;;6.50;;
11135;SDS011;5622;50.840;4.948;2023-05-10T09:40:11;11.00;;;7.40;;
11135;SDS011;5622;50.840;4.948;2023-05-10T09:42:41;9.07;;;7.00;;
11135;SDS011;5622;50.840;4.948;2023-05-10T09:45:17;7.63;;;5.70;;
11135;SDS011;5622;50.840;4.948;2023-05-10T09:47:46;9.00;;;5.90;;
11135;SDS011;5622;50.840;4.948;2023-05-10T09:50:15;9.17;;;5.13;;
11135;SDS011;5622;50.840;4.948;2023-05-10T09:52:49;9.40;;;5.13;;
11135;SDS011;5622;50.840;4.948;2023-05-10T09:55:20;4.97;;;4.00;;
11135;SDS011;5622;50.840;4.948;2023-05-10T09:57:58;6.33;;;4.57;;
11135;SDS011;5622;50.840;4.948;2023-05-10T10:00:34;7.90;;;4.87;;
11135;SDS011;5622;50.840;4.948;2023-05-10T10:03:02;7.63;;;5.03;;
11135;SDS011;5622;50.840;4.948;2023-05-10T10:05:30;6.07;;;4.70;;
11135;SDS011;5622;50.840;4.948;2023-05-10T10:08:00;7.60;;;4.90;;
11135;SDS011;5622;50.840;4.948;2023-05-10T10:10:29;6.90;;;4.77;;
11135;SDS011;5622;50.840;4.948;2023-05-10T10:12:59;6.87;;;4.63;;
11135;SDS011;5622;50.840;4.948;2023-05-10T10:15:27;5.07;;;4.13;;
11135;SDS011;5622;50.840;4.948;2023-05-10T10:17:55;5.70;;;4.37;;
11135;SDS011;5622;50.840;4.948;2023-05-10T10:20:22;5.83;;;3.77;;
11135;SDS011;5622;50.840;4.948;2023-05-10T10:22:50;5.77;;;3.90;;
11135;SDS011;5622;50.840;4.948;2023-05-10T10:25:19;4.13;;;3.37;;
11135;SDS011;5622;50.840;4.948;2023-05-10T10:27:49;5.70;;;3.60;;
11135;SDS011;5622;50.840;4.948;2023-05-10T10:30:29;3.37;;;3.07;;
11135;SDS011;5622;50.840;4.948;2023-05-10T10:33:27;4.37;;;3.30;;
11135;SDS011;5622;50.840;4.948;2023-05-10T10:36:06;4.67;;;3.30;;
11135;SDS011;5622;50.840;4.948;2023-05-10T10:38:37;5.60;;;3.13;;
11135;SDS011;5622;50.840;4.948;2023-05-10T10:41:29;3.20;;;2.70;;
11135;SDS011;5622;50.840;4.948;2023-05-10T10:46:58;2.97;;;2.60;;
11135;SDS011;5622;50.840;4.948;2023-05-10T10:49:27;3.37;;;2.57;;
11135;SDS011;5622;50.840;4.948;2023-05-10T10:52:12;4.13;;;2.90;;
11135;SDS011;5622;50.840;4.948;2023-05-10T10:54:41;4.13;;;2.93;;
11135;SDS011;5622;50.840;4.948;2023-05-10T10:57:15;3.70;;;2.80;;
11135;SDS011;5622;50.840;4.948;2023-05-10T10:59:46;4.33;;;3.10;;
11135;SDS011;5622;50.840;4.948;2023-05-10T11:02:33;5.07;;;3.37;;
11135;SDS011;5622;50.840;4.948;2023-05-10T11:08:11;4.70;;;3.00;;
11135;SDS011;5622;50.840;4.948;2023-05-10T11:10:53;3.07;;;2.70;;
11135;SDS011;5622;50.840;4.948;2023-05-10T11:13:40;3.10;;;2.63;;
11135;SDS011;5622;50.840;4.948;2023-05-10T11:16:09;3.97;;;2.93;;
11135;SDS011;5622;50.840;4.948;2023-05-10T11:18:38;3.73;;;2.63;;
11135;SDS011;5622;50.840;4.948;2023-05-10T11:21:08;4.50;;;3.10;;
11135;SDS011;5622;50.840;4.948;2023-05-10T11:23:49;4.20;;;3.00;;
11135;SDS011;5622;50.840;4.948;2023-05-10T11:26:18;4.40;;;3.07;;
11135;SDS011;5622;50.840;4.948;2023-05-10T11:28:49;4.13;;;3.57;;
11135;SDS011;5622;50.840;4.948;2023-05-10T11:31:18;6.90;;;3.77;;
11135;SDS011;5622;50.840;4.948;2023-05-10T11:33:46;4.80;;;2.80;;
11135;SDS011;5622;50.840;4.948;2023-05-10T11:36:15;24.13;;;3.63;;
11135;SDS011;5622;50.840;4.948;2023-05-10T11:38:43;3.83;;;2.60;;
11135;SDS011;5622;50.840;4.948;2023-05-10T11:41:11;3.20;;;2.13;;
11135;SDS011;5622;50.840;4.948;2023-05-10T11:43:39;3.10;;;2.73;;
11135;SDS011;5622;50.840;4.948;2023-05-10T11:46:09;3.17;;;2.63;;
11135;SDS011;5622;50.840;4.948;2023-05-10T11:48:38;3.57;;;2.77;;
11135;SDS011;5622;50.840;4.948;2023-05-10T11:51:06;7.27;;;2.93;;
11135;SDS011;5622;50.840;4.948;2023-05-10T11:53:34;2.70;;;2.50;;
11135;SDS011;5622;50.840;4.948;2023-05-10T11:56:05;3.90;;;2.80;;
11135;SDS011;5622;50.840;4.948;2023-05-10T11:58:33;3.23;;;2.93;;
11135;SDS011;5622;50.840;4.948;2023-05-10T12:01:02;4.07;;;3.07;;
11135;SDS011;5622;50.840;4.948;2023-05-10T12:03:31;3.47;;;2.77;;
11135;SDS011;5622;50.840;4.948;2023-05-10T12:05:59;4.00;;;3.20;;
11135;SDS011;5622;50.840;4.948;2023-05-10T12:08:29;4.73;;;3.50;;
11135;SDS011;5622;50.840;4.948;2023-05-10T12:11:04;9.33;;;3.93;;
11135;SDS011;5622;50.840;4.948;2023-05-10T12:13:32;4.30;;;3.67;;
11135;SDS011;5622;50.840;4.948;2023-05-10T12:16:12;3.67;;;3.23;;
11135;SDS011;5622;50.840;4.948;2023-05-10T12:18:41;4.63;;;3.57;;
11135;SDS011;5622;50.840;4.948;2023-05-10T12:21:09;4.70;;;3.53;;
11135;SDS011;5622;50.840;4.948;2023-05-10T12:23:37;4.37;;;3.63;;
11135;SDS011;5622;50.840;4.948;2023-05-10T12:26:05;5.13;;;4.07;;
11135;SDS011;5622;50.840;4.948;2023-05-10T12:28:32;7.77;;;3.87;;
11135;SDS011;5622;50.840;4.948;2023-05-10T12:31:00;3.60;;;2.87;;
11135;SDS011;5622;50.840;4.948;2023-05-10T12:33:34;5.40;;;3.10;;
11135;SDS011;5622;50.840;4.948;2023-05-10T12:36:05;4.73;;;3.40;;
11135;SDS011;5622;50.840;4.948;2023-05-10T12:38:33;3.57;;;3.20;;
11135;SDS011;5622;50.840;4.948;2023-05-10T12:41:03;3.50;;;3.20;;
11135;SDS011;5622;50.840;4.948;2023-05-10T12:43:31;3.43;;;3.00;;
11135;SDS011;5622;50.840;4.948;2023-05-10T12:45:58;4.00;;;3.07;;
11135;SDS011;5622;50.840;4.948;2023-05-10T12:48:31;4.47;;;3.27;;
11135;SDS011;5622;50.840;4.948;2023-05-10T12:50:59;4.67;;;3.43;;
11135;SDS011;5622;50.840;4.948;2023-05-10T12:53:27;6.30;;;4.13;;
11135;SDS011;5622;50.840;4.948;2023-05-10T12:55:54;4.70;;;3.47;;
11135;SDS011;5622;50.840;4.948;2023-05-10T12:58:22;4.23;;;3.80;;
11135;SDS011;5622;50.840;4.948;2023-05-10T13:00:49;4.10;;;3.10;;
11135;SDS011;5622;50.840;4.948;2023-05-10T13:03:17;5.53;;;3.60;;
11135;SDS011;5622;50.840;4.948;2023-05-10T13:05:45;4.33;;;3.77;;
11135;SDS011;5622;50.840;4.948;2023-05-10T13:08:12;4.03;;;3.63;;
11135;SDS011;5622;50.840;4.948;2023-05-10T13:10:40;5.93;;;4.20;;
11135;SDS011;5622;50.840;4.948;2023-05-10T13:13:07;5.73;;;4.43;;
11135;SDS011;5622;50.840;4.948;2023-05-10T13:15:35;5.80;;;4.33;;
11135;SDS011;5622;50.840;4.948;2023-05-10T13:18:02;5.57;;;4.10;;
11135;SDS011;5622;50.840;4.948;2023-05-10T13:20:29;4.77;;;4.17;;
11135;SDS011;5622;50.840;4.948;2023-05-10T13:22:56;7.70;;;4.43;;
11135;SDS011;5622;50.840;4.948;2023-05-10T13:25:23;6.87;;;5.20;;
11135;SDS011;5622;50.840;4.948;2023-05-10T13:27:52;5.27;;;4.37;;
11135;SDS011;5622;50.840;4.948;2023-05-10T13:30:19;5.33;;;4.23;;
11135;SDS011;5622;50.840;4.948;2023-05-10T13:32:46;6.03;;;4.60;;
11135;SDS011;5622;50.840;4.948;2023-05-10T13:35:13;7.27;;;5.17;;
11135;SDS011;5622;50.840;4.948;2023-05-10T13:37:40;6.40;;;4.57;;
11135;SDS011;5622;50.840;4.948;2023-05-10T13:40:08;6.63;;;4.80;;
11135;SDS011;5622;50.840;4.948;2023-05-10T13:42:35;5.30;;;4.63;;
11135;SDS011;5622;50.840;4.948;2023-05-10T13:45:04;5.37;;;3.87;;
11135;SDS011;5622;50.840;4.948;2023-05-10T13:47:32;5.73;;;4.17;;
11135;SDS011;5622;50.840;4.948;2023-05-10T13:49:59;4.63;;;3.97;;
11135;SDS011;5622;50.840;4.948;2023-05-10T13:52:27;7.60;;;4.40;;
11135;SDS011;5622;50.840;4.948;2023-05-10T13:54:54;7.13;;;3.97;;
11135;SDS011;5622;50.840;4.948;2023-05-10T13:57:21;8.33;;;3.97;;
11135;SDS011;5622;50.840;4.948;2023-05-10T13:59:49;7.50;;;4.27;;
11135;SDS011;5622;50.840;4.948;2023-05-10T14:02:18;5.50;;;4.57;;
11135;SDS011;5622;50.840;4.948;2023-05-10T14:04:46;4.83;;;3.90;;
11135;SDS011;5622;50.840;4.948;2023-05-10T14:07:13;7.57;;;3.70;;
11135;SDS011;5622;50.840;4.948;2023-05-10T14:09:40;6.77;;;3.70;;
11135;SDS011;5622;50.840;4.948;2023-05-10T14:12:08;6.13;;;4.23;;
11135;SDS011;5622;50.840;4.948;2023-05-10T14:14:39;3.93;;;3.47;;
11135;SDS011;5622;50.840;4.948;2023-05-10T14:17:07;8.03;;;4.20;;
11135;SDS011;5622;50.840;4.948;2023-05-10T14:19:36;7.13;;;4.87;;
11135;SDS011;5622;50.840;4.948;2023-05-10T14:22:04;8.60;;;4.90;;
11135;SDS011;5622;50.840;4.948;2023-05-10T14:24:32;10.70;;;4.83;;
11135;SDS011;5622;50.840;4.948;2023-05-10T14:26:59;9.00;;;5.00;;
11135;SDS011;5622;50.840;4.948;2023-05-10T14:29:27;6.03;;;4.67;;
11135;SDS011;5622;50.840;4.948;2023-05-10T14:31:54;7.00;;;5.23;;
11135;SDS011;5622;50.840;4.948;2023-05-10T14:34:22;7.77;;;4.80;;
11135;SDS011;5622;50.840;4.948;2023-05-10T14:36:51;9.57;;;5.10;;
11135;SDS011;5622;50.840;4.948;2023-05-10T14:39:19;8.53;;;5.13;;
11135;SDS011;5622;50.840;4.948;2023-05-10T14:41:48;7.03;;;5.37;;
11135;SDS011;5622;50.840;4.948;2023-05-10T14:44:16;9.90;;;5.70;;
11135;SDS011;5622;50.840;4.948;2023-05-10T14:46:44;8.97;;;6.40;;
11135;SDS011;5622;50.840;4.948;2023-05-10T14:49:12;7.20;;;5.87;;
11135;SDS011;5622;50.840;4.948;2023-05-10T14:51:39;9.90;;;6.07;;
11135;SDS011;5622;50.840;4.948;2023-05-10T14:54:08;13.43;;;7.23;;
11135;SDS011;5622;50.840;4.948;2023-05-10T14:56:35;13.07;;;7.33;;
11135;SDS011;5622;50.840;4.948;2023-05-10T14:59:03;11.33;;;6.50;;
11135;SDS011;5622;50.840;4.948;2023-05-10T15:01:30;7.93;;;5.67;;
11135;SDS011;5622;50.840;4.948;2023-05-10T15:03:58;10.67;;;6.13;;
11135;SDS011;5622;50.840;4.948;2023-05-10T15:06:30;8.23;;;5.77;;
11135;SDS011;5622;50.840;4.948;2023-05-10T15:08:57;8.77;;;6.20;;
11135;SDS011;5622;50.840;4.948;2023-05-10T15:11:26;7.67;;;6.00;;
11135;SDS011;5622;50.840;4.948;2023-05-10T15:13:54;8.10;;;5.90;;
11135;SDS011;5622;50.840;4.948;2023-05-10T15:16:21;9.90;;;6.73;;
11135;SDS011;5622;50.840;4.948;2023-05-10T15:18:48;10.27;;;7.07;;
11135;SDS011;5622;50.840;4.948;2023-05-10T15:21:15;11.03;;;6.43;;
11135;SDS011;5622;50.840;4.948;2023-05-10T15:23:42;12.97;;;6.53;;
11135;SDS011;5622;50.840;4.948;2023-05-10T15:26:09;11.30;;;7.13;;
11135;SDS011;5622;50.840;4.948;2023-05-10T15:28:37;18.23;;;8.10;;
11135;SDS011;5622;50.840;4.948;2023-05-10T15:31:05;12.13;;;8.00;;
11135;SDS011;5622;50.840;4.948;2023-05-10T15:33:32;14.20;;;8.87;;
11135;SDS011;5622;50.840;4.948;2023-05-10T15:35:59;13.23;;;8.33;;
11135;SDS011;5622;50.840;4.948;2023-05-10T15:38:26;15.23;;;9.30;;
11135;SDS011;5622;50.840;4.948;2023-05-10T15:40:55;18.00;;;9.73;;
11135;SDS011;5622;50.840;4.948;2023-05-10T15:43:23;13.67;;;9.17;;
11135;SDS011;5622;50.840;4.948;2023-05-10T15:45:51;15.63;;;9.73;;
11135;SDS011;5622;50.840;4.948;2023-05-10T15:48:18;15.70;;;9.17;;
11135;SDS011;5622;50.840;4.948;2023-05-10T15:50:46;13.40;;;8.67;;
11135;SDS011;5622;50.840;4.948;2023-05-10T15:53:13;16.30;;;9.00;;
11135;SDS011;5622;50.840;4.948;2023-05-10T15:55:40;15.40;;;8.33;;
11135;SDS011;5622;50.840;4.948;2023-05-10T15:58:07;11.77;;;7.90;;
11135;SDS011;5622;50.840;4.948;2023-05-10T16:00:34;11.10;;;8.00;;
11135;SDS011;5622;50.840;4.948;2023-05-10T16:03:02;10.90;;;8.03;;
11135;SDS011;5622;50.840;4.948;2023-05-10T16:05:29;12.27;;;8.27;;
11135;SDS011;5622;50.840;4.948;2023-05-10T16:07:57;13.80;;;8.37;;
11135;SDS011;5622;50.840;4.948;2023-05-10T16:10:24;12.63;;;8.20;;
11135;SDS011;5622;50.840;4.948;2023-05-10T16:12:52;12.93;;;8.43;;
11135;SDS011;5622;50.840;4.948;2023-05-10T16:15:19;13.80;;;8.13;;
11135;SDS011;5622;50.840;4.948;2023-05-10T16:17:46;14.57;;;9.00;;
11135;SDS011;5622;50.840;4.948;2023-05-10T16:20:15;15.53;;;9.07;;
11135;SDS011;5622;50.840;4.948;2023-05-10T16:22:42;11.57;;;8.67;;
11135;SDS011;5622;50.840;4.948;2023-05-10T16:25:09;10.03;;;7.90;;
11135;SDS011;5622;50.840;4.948;2023-05-10T16:27:37;10.37;;;6.90;;
11135;SDS011;5622;50.840;4.948;2023-05-10T16:30:04;9.03;;;5.10;;
11135;SDS011;5622;50.840;4.948;2023-05-10T16:32:32;10.23;;;5.40;;
11135;SDS011;5622;50.840;4.948;2023-05-10T16:34:59;11.97;;;5.97;;
11135;SDS011;5622;50.840;4.948;2023-05-10T16:37:28;12.63;;;5.80;;
11135;SDS011;5622;50.840;4.948;2023-05-10T16:39:55;12.67;;;5.83;;
11135;SDS011;5622;50.840;4.948;2023-05-10T16:42:22;9.57;;;6.53;;
11135;SDS011;5622;50.840;4.948;2023-05-10T16:44:50;12.33;;;6.90;;
11135;SDS011;5622;50.840;4.948;2023-05-10T16:47:17;17.00;;;6.87;;
11135;SDS011;5622;50.840;4.948;2023-05-10T16:49:45;14.00;;;6.50;;
11135;SDS011;5622;50.840;4.948;2023-05-10T16:52:12;8.63;;;6.10;;
11135;SDS011;5622;50.840;4.948;2023-05-10T16:54:41;8.17;;;5.13;;
11135;SDS011;5622;50.840;4.948;2023-05-10T16:57:09;15.17;;;5.77;;
11135;SDS011;5622;50.840;4.948;2023-05-10T16:59:36;10.47;;;5.83;;
11135;SDS011;5622;50.840;4.948;2023-05-10T17:02:03;11.93;;;5.50;;
11135;SDS011;5622;50.840;4.948;2023-05-10T17:04:30;10.33;;;5.03;;
11135;SDS011;5622;50.840;4.948;2023-05-10T17:06:57;13.30;;;5.37;;
11135;SDS011;5622;50.840;4.948;2023-05-10T17:09:24;17.00;;;5.90;;
11135;SDS011;5622;50.840;4.948;2023-05-10T17:11:52;15.10;;;5.87;;
11135;SDS011;5622;50.840;4.948;2023-05-10T17:14:19;11.00;;;5.53;;
11135;SDS011;5622;50.840;4.948;2023-05-10T17:16:47;13.30;;;6.57;;
11135;SDS011;5622;50.840;4.948;2023-05-10T17:19:16;13.90;;;5.87;;
11135;SDS011;5622;50.840;4.948;2023-05-10T17:21:43;12.53;;;5.70;;
11135;SDS011;5622;50.840;4.948;2023-05-10T17:24:10;7.63;;;5.37;;
11135;SDS011;5622;50.840;4.948;2023-05-10T17:26:37;12.97;;;6.27;;
11135;SDS011;5622;50.840;4.948;2023-05-10T17:29:06;13.23;;;5.97;;
11135;SDS011;5622;50.840;4.948;2023-05-10T17:31:33;13.50;;;6.17;;
11135;SDS011;5622;50.840;4.948;2023-05-10T17:34:00;12.77;;;6.70;;
11135;SDS011;5622;50.840;4.948;2023-05-10T17:36:27;13.20;;;6.50;;
11135;SDS011;5622;50.840;4.948;2023-05-10T17:38:54;11.27;;;5.90;;
11135;SDS011;5622;50.840;4.948;2023-05-10T17:41:21;11.27;;;6.87;;
11135;SDS011;5622;50.840;4.948;2023-05-10T17:43:48;12.73;;;6.20;;
11135;SDS011;5622;50.840;4.948;2023-05-10T17:46:17;14.27;;;7.00;;
11135;SDS011;5622;50.840;4.948;2023-05-10T17:48:44;12.07;;;6.60;;
11135;SDS011;5622;50.840;4.948;2023-05-10T17:51:11;12.87;;;6.77;;
11135;SDS011;5622;50.840;4.948;2023-05-10T17:53:38;12.80;;;7.47;;
11135;SDS011;5622;50.840;4.948;2023-05-10T17:56:06;13.33;;;6.50;;
11135;SDS011;5622;50.840;4.948;2023-05-10T17:58:33;16.47;;;6.97;;
11135;SDS011;5622;50.840;4.948;2023-05-10T18:01:02;14.20;;;7.93;;
11135;SDS011;5622;50.840;4.948;2023-05-10T18:03:30;12.87;;;7.03;;
11135;SDS011;5622;50.840;4.948;2023-05-10T18:06:00;14.07;;;8.70;;
11135;SDS011;5622;50.840;4.948;2023-05-10T18:08:28;15.80;;;8.37;;
11135;SDS011;5622;50.840;4.948;2023-05-10T18:10:55;14.03;;;8.90;;
11135;SDS011;5622;50.840;4.948;2023-05-10T18:13:22;15.23;;;8.60;;
11135;SDS011;5622;50.840;4.948;2023-05-10T18:15:49;15.40;;;8.53;;
11135;SDS011;5622;50.840;4.948;2023-05-10T18:18:17;12.57;;;7.97;;
11135;SDS011;5622;50.840;4.948;2023-05-10T18:20:45;17.47;;;9.17;;
11135;SDS011;5622;50.840;4.948;2023-05-10T18:23:15;18.40;;;8.90;;
11135;SDS011;5622;50.840;4.948;2023-05-10T18:25:42;12.70;;;7.87;;
11135;SDS011;5622;50.840;4.948;2023-05-10T18:28:09;19.73;;;7.67;;
11135;SDS011;5622;50.840;4.948;2023-05-10T18:30:36;11.70;;;7.77;;
11135;SDS011;5622;50.840;4.948;2023-05-10T18:33:04;15.37;;;8.10;;
11135;SDS011;5622;50.840;4.948;2023-05-10T18:35:31;14.27;;;8.70;;
11135;SDS011;5622;50.840;4.948;2023-05-10T18:38:01;13.57;;;8.00;;
11135;SDS011;5622;50.840;4.948;2023-05-10T18:40:28;19.80;;;8.10;;
11135;SDS011;5622;50.840;4.948;2023-05-10T18:42:55;14.00;;;8.53;;
11135;SDS011;5622;50.840;4.948;2023-05-10T18:45:22;19.07;;;9.00;;
11135;SDS011;5622;50.840;4.948;2023-05-10T18:47:49;12.20;;;8.07;;
11135;SDS011;5622;50.840;4.948;2023-05-10T18:50:16;16.77;;;8.90;;
11135;SDS011;5622;50.840;4.948;2023-05-10T18:52:43;16.20;;;8.63;;
11135;SDS011;5622;50.840;4.948;2023-05-10T18:55:12;15.30;;;8.93;;
11135;SDS011;5622;50.840;4.948;2023-05-10T18:57:39;16.57;;;8.20;;
11135;SDS011;5622;50.840;4.948;2023-05-10T19:00:07;14.37;;;8.43;;
11135;SDS011;5622;50.840;4.948;2023-05-10T19:02:36;13.90;;;8.20;;
11135;SDS011;5622;50.840;4.948;2023-05-10T19:05:03;12.33;;;8.60;;
11135;SDS011;5622;50.840;4.948;2023-05-10T19:07:31;14.40;;;8.77;;
11135;SDS011;5622;50.840;4.948;2023-05-10T19:09:58;24.97;;;9.73;;
11135;SDS011;5622;50.840;4.948;2023-05-10T19:12:26;20.07;;;11.23;;